createdAt,value
2023-02-09T05:00:24.532Z,0.00
2023-02-09T05:01:24.540Z,0.00
2023-02-09T05:02:24.476Z,0.00
2023-02-09T05:03:24.812Z,0.00
2023-02-09T05:04:24.460Z,0.00
2023-02-09T05:05:24.436Z,0.00
2023-02-09T05:06:24.418Z,0.00
2023-02-09T05:07:24.412Z,0.00
2023-02-09T05:08:24.396Z,0.00
2023-02-09T05:09:24.424Z,0.00
2023-02-09T05:10:24.378Z,0.00
2023-02-09T05:11:29.395Z,0.00
2023-02-09T05:12:24.364Z,0.00
2023-02-09T05:13:24.354Z,0.00
2023-02-09T05:14:24.355Z,0.00
2023-02-09T05:15:24.332Z,0.00
2023-02-09T05:16:24.493Z,0.00
2023-02-09T05:17:24.307Z,0.00
2023-02-09T05:18:24.284Z,0.00
2023-02-09T05:19:24.282Z,0.00
2023-02-09T05:20:24.274Z,0.00
2023-02-09T05:21:24.257Z,0.00
2023-02-09T05:22:29.276Z,0.00
2023-02-09T05:23:24.227Z,0.00
2023-02-09T05:24:24.232Z,0.00
2023-02-09T05:25:24.212Z,0.00
2023-02-09T05:26:24.202Z,0.00
2023-02-09T05:27:24.184Z,0.00
2023-02-09T05:28:24.238Z,0.00
2023-02-09T05:29:24.182Z,0.00
2023-02-09T05:30:24.164Z,0.00
2023-02-09T05:31:24.351Z,0.00
2023-02-09T05:32:24.240Z,0.00
2023-02-09T05:33:29.152Z,0.00
2023-02-09T05:34:24.118Z,0.00
2023-02-09T05:35:24.102Z,0.00
2023-02-09T05:36:24.090Z,0.00
2023-02-09T05:37:24.076Z,0.00
2023-02-09T05:38:24.183Z,0.00
2023-02-09T05:39:24.074Z,0.00
2023-02-09T05:40:24.050Z,0.00
2023-02-09T05:41:24.035Z,0.00
2023-02-09T05:42:24.020Z,0.00
2023-02-09T05:43:24.009Z,0.00
2023-02-09T05:44:29.081Z,0.00
2023-02-09T05:45:23.994Z,0.00
2023-02-09T05:46:24.048Z,0.00
2023-02-09T05:47:23.969Z,0.00
2023-02-09T05:48:23.978Z,0.00
2023-02-09T05:49:23.953Z,0.00
2023-02-09T05:50:23.937Z,0.00
2023-02-09T05:51:23.918Z,0.00
2023-02-09T05:52:23.908Z,0.00
2023-02-09T05:53:23.903Z,0.00
2023-02-09T05:54:23.909Z,0.00
2023-02-09T05:55:28.899Z,0.00
2023-02-09T05:56:23.862Z,0.00
2023-02-09T05:57:23.861Z,0.00
2023-02-09T05:58:23.845Z,0.00
2023-02-09T05:59:23.873Z,0.00
2023-02-09T06:00:23.816Z,0.00
2023-02-09T06:01:23.811Z,0.00
2023-02-09T06:02:23.870Z,0.00
2023-02-09T06:03:23.846Z,0.00
2023-02-09T06:04:23.806Z,0.00
2023-02-09T06:05:23.766Z,0.00
2023-02-09T06:06:28.773Z,0.00
2023-02-09T06:07:23.737Z,0.00
2023-02-09T06:08:23.728Z,0.00
2023-02-09T06:09:23.781Z,0.00
2023-02-09T06:10:23.708Z,0.00
2023-02-09T06:11:23.760Z,0.00
2023-02-09T06:12:23.713Z,0.00
2023-02-09T06:13:23.673Z,0.00
2023-02-09T06:14:23.673Z,0.00
2023-02-09T06:15:23.720Z,0.00
2023-02-09T06:16:23.649Z,0.00
2023-02-09T06:17:28.660Z,0.00
2023-02-09T06:18:23.620Z,0.00
2023-02-09T06:19:23.613Z,0.00
2023-02-09T06:20:23.617Z,0.00
2023-02-09T06:21:23.614Z,0.00
2023-02-09T06:22:23.579Z,0.00
2023-02-09T06:23:23.559Z,0.00
2023-02-09T06:24:23.557Z,0.00
2023-02-09T06:25:23.543Z,0.00
2023-02-09T06:26:23.525Z,0.00
2023-02-09T06:27:23.519Z,0.00
2023-02-09T06:28:28.616Z,0.00
2023-02-09T06:29:23.502Z,0.00
2023-02-09T06:30:23.482Z,0.00
2023-02-09T06:31:23.606Z,0.00
2023-02-09T06:32:23.484Z,0.00
2023-02-09T06:33:23.458Z,0.00
2023-02-09T06:34:23.474Z,0.00
2023-02-09T06:35:23.453Z,0.00
2023-02-09T06:36:23.441Z,0.00
2023-02-09T06:37:23.419Z,0.00
2023-02-09T06:38:23.394Z,0.00
2023-02-09T06:39:28.417Z,0.00
2023-02-09T06:40:23.375Z,0.00
2023-02-09T06:41:23.426Z,0.00
2023-02-09T06:42:23.357Z,0.00
2023-02-09T06:43:23.341Z,0.00
2023-02-09T06:44:23.335Z,5.62
2023-02-09T06:45:23.331Z,5.62
2023-02-09T06:46:23.421Z,5.62
2023-02-09T06:47:23.297Z,5.62
2023-02-09T06:48:23.288Z,5.62
2023-02-09T06:49:23.273Z,5.62
2023-02-09T06:50:28.301Z,5.62
2023-02-09T06:51:23.250Z,5.62
2023-02-09T06:52:23.265Z,5.62
2023-02-09T06:53:23.236Z,11.25
2023-02-09T06:54:23.226Z,11.25
2023-02-09T06:55:23.215Z,11.25
2023-02-09T06:56:23.202Z,11.25
2023-02-09T06:57:23.185Z,11.25
2023-02-09T06:58:23.183Z,11.25
2023-02-09T06:59:23.174Z,11.25
2023-02-09T07:00:23.162Z,16.88
2023-02-09T07:01:28.268Z,16.88
2023-02-09T07:02:23.169Z,16.88
2023-02-09T07:03:23.145Z,16.88
2023-02-09T07:04:23.124Z,16.88
2023-02-09T07:05:23.116Z,16.88
2023-02-09T07:06:23.106Z,22.50
2023-02-09T07:07:25.327Z,22.50
2023-02-09T07:08:23.094Z,22.50
2023-02-09T07:09:23.055Z,22.50
2023-02-09T07:10:23.077Z,22.50
2023-02-09T07:11:23.030Z,28.12
2023-02-09T07:12:28.067Z,28.12
2023-02-09T07:13:23.008Z,28.12
2023-02-09T07:14:23.003Z,28.12
2023-02-09T07:15:22.998Z,28.12
2023-02-09T07:16:23.087Z,33.75
2023-02-09T07:17:22.965Z,33.75
2023-02-09T07:18:22.956Z,33.75
2023-02-09T07:19:22.944Z,33.75
2023-02-09T07:20:22.951Z,33.75
2023-02-09T07:21:22.934Z,39.38
2023-02-09T07:22:22.912Z,39.38
2023-02-09T07:23:27.942Z,39.38
2023-02-09T07:24:22.890Z,39.38
2023-02-09T07:25:22.893Z,39.38
2023-02-09T07:26:22.873Z,45.00
2023-02-09T07:27:22.867Z,45.00
2023-02-09T07:28:22.989Z,45.00
2023-02-09T07:29:22.836Z,45.00
2023-02-09T07:30:22.844Z,45.00
2023-02-09T07:31:22.980Z,50.62
2023-02-09T07:32:22.816Z,50.62
2023-02-09T07:33:22.791Z,50.62
2023-02-09T07:34:27.814Z,50.62
2023-02-09T07:35:22.778Z,50.62
2023-02-09T07:36:22.760Z,56.25
2023-02-09T07:37:22.757Z,56.25
2023-02-09T07:38:22.740Z,56.25
2023-02-09T07:39:22.758Z,56.25
2023-02-09T07:40:22.723Z,56.25
2023-02-09T07:41:22.700Z,61.88
2023-02-09T07:42:23.475Z,61.88
2023-02-09T07:43:22.677Z,61.88
2023-02-09T07:44:22.668Z,61.88
2023-02-09T07:45:27.698Z,61.88
2023-02-09T07:46:22.691Z,67.50
2023-02-09T07:47:22.635Z,67.50
2023-02-09T07:48:22.636Z,67.50
2023-02-09T07:49:22.614Z,67.50
2023-02-09T07:50:22.613Z,67.50
2023-02-09T07:51:22.593Z,67.50
2023-02-09T07:52:22.579Z,73.12
2023-02-09T07:53:22.569Z,73.12
2023-02-09T07:54:22.560Z,73.12
2023-02-09T07:55:22.571Z,73.12
2023-02-09T07:56:27.571Z,73.12
2023-02-09T07:57:22.525Z,78.75
2023-02-09T07:58:22.537Z,78.75
2023-02-09T07:59:22.496Z,78.75
2023-02-09T08:00:22.499Z,78.75
2023-02-09T08:01:22.597Z,78.75
2023-02-09T08:02:22.469Z,78.75
2023-02-09T08:03:22.496Z,78.75
2023-02-09T08:04:22.447Z,84.38
2023-02-09T08:05:22.480Z,84.38
2023-02-09T08:06:26.034Z,84.38
2023-02-09T08:07:28.441Z,84.38
2023-02-09T08:08:23.025Z,84.38
2023-02-09T08:09:22.441Z,84.38
2023-02-09T08:10:22.395Z,90.00
2023-02-09T08:11:22.392Z,90.00
2023-02-09T08:12:22.392Z,90.00
2023-02-09T08:13:22.369Z,90.00
2023-02-09T08:14:22.337Z,90.00
2023-02-09T08:15:22.338Z,95.62
2023-02-09T08:16:22.357Z,95.62
2023-02-09T08:17:22.299Z,95.62
2023-02-09T08:18:27.313Z,95.62
2023-02-09T08:19:22.277Z,95.62
2023-02-09T08:20:22.290Z,101.25
2023-02-09T08:21:22.255Z,101.25
2023-02-09T08:22:22.257Z,101.25
2023-02-09T08:23:22.234Z,101.25
2023-02-09T08:24:22.229Z,101.25
2023-02-09T08:25:22.222Z,101.25
2023-02-09T08:26:22.211Z,101.25
2023-02-09T08:27:22.220Z,106.88
2023-02-09T08:28:31.876Z,106.88
2023-02-09T08:29:28.196Z,106.88
2023-02-09T08:30:22.172Z,106.88
2023-02-09T08:31:22.447Z,106.88
2023-02-09T08:32:22.138Z,106.88
2023-02-09T08:33:22.148Z,106.88
2023-02-09T08:34:22.122Z,106.88
2023-02-09T08:35:22.142Z,106.88
2023-02-09T08:36:22.093Z,106.88
2023-02-09T08:37:22.084Z,106.88
2023-02-09T08:38:22.071Z,112.50
2023-02-09T08:39:22.063Z,112.50
2023-02-09T08:40:27.084Z,112.50
2023-02-09T08:41:22.041Z,112.50
2023-02-09T08:42:22.025Z,123.75
2023-02-09T08:43:22.037Z,118.12
2023-02-09T08:44:22.005Z,118.12
2023-02-09T08:45:22.108Z,118.12
2023-02-09T08:46:22.154Z,123.75
2023-02-09T08:47:21.970Z,123.75
2023-02-09T08:48:21.963Z,129.38
2023-02-09T08:49:21.948Z,123.75
2023-02-09T08:50:21.949Z,123.75
2023-02-09T08:51:26.951Z,129.38
2023-02-09T08:52:21.932Z,129.38
2023-02-09T08:53:21.908Z,129.38
2023-02-09T08:54:21.909Z,129.38
2023-02-09T08:55:21.916Z,135.00
2023-02-09T08:56:21.926Z,135.00
2023-02-09T08:57:24.205Z,135.00
2023-02-09T08:58:22.864Z,135.00
2023-02-09T08:59:21.877Z,135.00
2023-02-09T09:00:21.831Z,140.62
2023-02-09T09:01:21.892Z,140.62
2023-02-09T09:02:26.832Z,146.25
2023-02-09T09:03:21.851Z,146.25
2023-02-09T09:04:21.790Z,151.88
2023-02-09T09:05:21.776Z,163.12
2023-02-09T09:06:21.779Z,174.38
2023-02-09T09:07:21.759Z,208.12
2023-02-09T09:08:21.746Z,247.50
2023-02-09T09:09:21.729Z,264.38
2023-02-09T09:10:21.724Z,264.38
2023-02-09T09:11:21.719Z,253.12
2023-02-09T09:12:21.700Z,241.88
2023-02-09T09:13:26.744Z,213.75
2023-02-09T09:14:21.697Z,191.25
2023-02-09T09:15:21.682Z,174.38
2023-02-09T09:16:21.840Z,168.75
2023-02-09T09:17:21.644Z,174.38
2023-02-09T09:18:21.634Z,180.00
2023-02-09T09:19:21.631Z,185.62
2023-02-09T09:20:21.695Z,202.50
2023-02-09T09:21:21.609Z,236.25
2023-02-09T09:22:21.598Z,264.38
2023-02-09T09:23:21.578Z,281.25
2023-02-09T09:24:26.589Z,275.62
2023-02-09T09:25:21.566Z,281.25
2023-02-09T09:26:21.573Z,281.25
2023-02-09T09:27:21.562Z,270.00
2023-02-09T09:28:21.694Z,275.62
2023-02-09T09:29:21.509Z,292.50
2023-02-09T09:30:21.521Z,298.12
2023-02-09T09:31:21.681Z,298.12
2023-02-09T09:32:21.684Z,292.50
2023-02-09T09:33:21.503Z,292.50
2023-02-09T09:34:21.453Z,298.12
2023-02-09T09:35:26.475Z,298.12
2023-02-09T09:36:21.483Z,303.75
2023-02-09T09:37:21.422Z,303.75
2023-02-09T09:38:21.406Z,303.75
2023-02-09T09:39:21.399Z,309.38
2023-02-09T09:40:21.396Z,303.75
2023-02-09T09:41:21.407Z,292.50
2023-02-09T09:42:21.362Z,281.25
2023-02-09T09:43:21.352Z,286.88
2023-02-09T09:44:21.344Z,292.50
2023-02-09T09:45:21.348Z,286.88
2023-02-09T09:46:26.449Z,292.50
2023-02-09T09:47:21.312Z,298.12
2023-02-09T09:48:21.294Z,315.00
2023-02-09T09:49:21.288Z,315.00
2023-02-09T09:50:21.273Z,309.38
2023-02-09T09:51:21.273Z,303.75
2023-02-09T09:52:21.249Z,286.88
2023-02-09T09:53:21.249Z,270.00
2023-02-09T09:54:21.249Z,270.00
2023-02-09T09:55:21.221Z,270.00
2023-02-09T09:56:21.221Z,292.50
2023-02-09T09:57:26.231Z,298.12
2023-02-09T09:58:21.183Z,309.38
2023-02-09T09:59:21.175Z,303.75
2023-02-09T10:00:21.158Z,286.88
2023-02-09T10:01:21.240Z,281.25
2023-02-09T10:02:21.160Z,292.50
2023-02-09T10:03:21.127Z,292.50
2023-02-09T10:04:21.214Z,303.75
2023-02-09T10:05:21.103Z,309.38
2023-02-09T10:06:21.104Z,315.00
2023-02-09T10:07:23.364Z,331.88
2023-02-09T10:08:26.093Z,337.50
2023-02-09T10:09:21.061Z,331.88
2023-02-09T10:10:21.053Z,292.50
2023-02-09T10:11:21.045Z,236.25
2023-02-09T10:12:21.022Z,219.38
2023-02-09T10:13:21.017Z,253.12
2023-02-09T10:14:22.895Z,292.50
2023-02-09T10:15:20.991Z,286.88
2023-02-09T10:16:21.010Z,258.75
2023-02-09T10:17:20.983Z,236.25
2023-02-09T10:18:20.979Z,253.12
2023-02-09T10:19:25.985Z,275.62
2023-02-09T10:20:20.932Z,270.00
2023-02-09T10:21:20.934Z,225.00
2023-02-09T10:22:20.919Z,202.50
2023-02-09T10:23:20.904Z,202.50
2023-02-09T10:24:20.892Z,196.88
2023-02-09T10:25:20.878Z,196.88
2023-02-09T10:26:20.873Z,219.38
2023-02-09T10:27:20.871Z,270.00
2023-02-09T10:28:20.936Z,309.38
2023-02-09T10:29:20.833Z,343.12
2023-02-09T10:30:25.847Z,360.00
2023-02-09T10:31:20.940Z,365.62
2023-02-09T10:32:20.805Z,376.88
2023-02-09T10:33:20.784Z,382.50
2023-02-09T10:34:20.823Z,382.50
2023-02-09T10:35:20.774Z,360.00
2023-02-09T10:36:20.756Z,331.88
2023-02-09T10:37:20.806Z,326.25
2023-02-09T10:38:20.724Z,303.75
2023-02-09T10:39:20.716Z,298.12
2023-02-09T10:40:20.709Z,286.88
2023-02-09T10:41:25.715Z,281.25
2023-02-09T10:42:20.703Z,281.25
2023-02-09T10:43:20.688Z,298.12
2023-02-09T10:44:20.679Z,303.75
2023-02-09T10:45:20.656Z,326.25
2023-02-09T10:46:20.810Z,360.00
2023-02-09T10:47:20.638Z,360.00
2023-02-09T10:48:20.618Z,354.38
2023-02-09T10:49:20.612Z,365.62
2023-02-09T10:50:20.610Z,337.50
2023-02-09T10:51:20.578Z,303.75
2023-02-09T10:52:25.598Z,320.62
2023-02-09T10:53:20.554Z,320.62
2023-02-09T10:54:20.547Z,326.25
2023-02-09T10:55:20.544Z,326.25
2023-02-09T10:56:20.564Z,298.12
2023-02-09T10:57:20.520Z,281.25
2023-02-09T10:58:20.496Z,270.00
2023-02-09T10:59:20.492Z,270.00
2023-02-09T11:00:20.484Z,275.62
2023-02-09T11:01:20.513Z,275.62
2023-02-09T11:02:20.463Z,253.12
2023-02-09T11:03:25.539Z,258.75
2023-02-09T11:04:20.498Z,292.50
2023-02-09T11:05:20.428Z,348.75
2023-02-09T11:06:20.432Z,348.75
2023-02-09T11:07:20.432Z,354.38
2023-02-09T11:08:20.386Z,360.00
2023-02-09T11:09:20.377Z,337.50
2023-02-09T11:10:20.413Z,320.62
2023-02-09T11:11:20.355Z,303.75
2023-02-09T11:12:20.391Z,270.00
2023-02-09T11:13:20.334Z,258.75
2023-02-09T11:14:25.348Z,253.12
2023-02-09T11:15:20.320Z,258.75
2023-02-09T11:16:20.361Z,258.75
2023-02-09T11:17:20.301Z,236.25
2023-02-09T11:18:20.285Z,208.12
2023-02-09T11:19:20.271Z,208.12
2023-02-09T11:20:20.261Z,213.75
2023-02-09T11:21:20.242Z,202.50
2023-02-09T11:22:20.257Z,185.62
2023-02-09T11:23:20.234Z,185.62
2023-02-09T11:24:20.215Z,191.25
2023-02-09T11:25:25.218Z,225.00
2023-02-09T11:26:20.184Z,286.88
2023-02-09T11:27:21.111Z,303.75
2023-02-09T11:28:20.277Z,292.50
2023-02-09T11:29:20.155Z,264.38
2023-02-09T11:30:20.140Z,241.88
2023-02-09T11:31:20.301Z,264.38
2023-02-09T11:32:20.117Z,270.00
2023-02-09T11:33:20.122Z,270.00
2023-02-09T11:34:20.097Z,241.88
2023-02-09T11:35:20.089Z,247.50
2023-02-09T11:36:25.092Z,281.25
2023-02-09T11:37:20.094Z,292.50
2023-02-09T11:38:20.086Z,264.38
2023-02-09T11:39:20.041Z,247.50
2023-02-09T11:40:20.043Z,258.75
2023-02-09T11:41:20.038Z,275.62
2023-02-09T11:42:20.004Z,270.00
2023-02-09T11:43:20.012Z,281.25
2023-02-09T11:44:19.982Z,315.00
2023-02-09T11:45:19.980Z,320.62
2023-02-09T11:46:20.025Z,270.00
2023-02-09T11:47:24.973Z,247.50
2023-02-09T11:48:19.957Z,258.75
2023-02-09T11:49:19.945Z,303.75
2023-02-09T11:50:19.949Z,298.12
2023-02-09T11:51:19.906Z,270.00
2023-02-09T11:52:19.906Z,264.38
2023-02-09T11:53:19.902Z,258.75
2023-02-09T11:54:19.891Z,258.75
2023-02-09T11:55:19.859Z,270.00
2023-02-09T11:56:19.848Z,292.50
2023-02-09T11:57:19.842Z,303.75
2023-02-09T11:58:24.870Z,315.00
2023-02-09T11:59:19.816Z,298.12
2023-02-09T12:00:19.820Z,236.25
2023-02-09T12:01:20.225Z,230.62
2023-02-09T12:02:21.698Z,230.62
2023-02-09T12:03:19.783Z,213.75
2023-02-09T12:04:19.772Z,230.62
2023-02-09T12:05:19.913Z,281.25
2023-02-09T12:06:19.778Z,348.75
2023-02-09T12:07:19.728Z,337.50
2023-02-09T12:08:19.722Z,286.88
2023-02-09T12:09:24.744Z,275.62
2023-02-09T12:10:19.686Z,292.50
2023-02-09T12:11:19.677Z,303.75
2023-02-09T12:12:19.672Z,292.50
2023-02-09T12:13:19.674Z,286.88
2023-02-09T12:14:19.640Z,275.62
2023-02-09T12:15:19.652Z,281.25
2023-02-09T12:16:19.720Z,286.88
2023-02-09T12:17:19.614Z,258.75
2023-02-09T12:18:19.596Z,247.50
2023-02-09T12:19:19.604Z,264.38
2023-02-09T12:20:24.600Z,264.38
2023-02-09T12:21:19.572Z,270.00
2023-02-09T12:22:19.551Z,241.88
2023-02-09T12:23:19.542Z,247.50
2023-02-09T12:24:19.546Z,253.12
2023-02-09T12:25:19.544Z,230.62
2023-02-09T12:26:19.513Z,196.88
2023-02-09T12:27:19.503Z,202.50
2023-02-09T12:28:19.548Z,213.75
2023-02-09T12:29:19.483Z,219.38
2023-02-09T12:30:19.458Z,213.75
2023-02-09T12:31:24.647Z,208.12
2023-02-09T12:32:19.518Z,208.12
2023-02-09T12:33:19.435Z,208.12
2023-02-09T12:34:19.434Z,185.62
2023-02-09T12:35:19.405Z,180.00
2023-02-09T12:36:19.395Z,208.12
2023-02-09T12:37:19.387Z,230.62
2023-02-09T12:38:19.392Z,225.00
2023-02-09T12:39:23.720Z,219.38
2023-02-09T12:40:19.352Z,219.38
2023-02-09T12:41:19.374Z,185.62
2023-02-09T12:42:24.345Z,196.88
2023-02-09T12:43:19.328Z,219.38
2023-02-09T12:44:19.326Z,225.00
2023-02-09T12:45:19.288Z,208.12
2023-02-09T12:46:19.345Z,196.88
2023-02-09T12:47:19.269Z,196.88
2023-02-09T12:48:19.338Z,196.88
2023-02-09T12:49:19.269Z,191.25
2023-02-09T12:50:19.233Z,185.62
2023-02-09T12:51:19.219Z,185.62
2023-02-09T12:52:19.210Z,180.00
2023-02-09T12:53:24.227Z,185.62
2023-02-09T12:54:19.195Z,196.88
2023-02-09T12:55:19.172Z,191.25
2023-02-09T12:56:19.160Z,191.25
2023-02-09T12:57:19.181Z,191.25
2023-02-09T12:58:19.139Z,191.25
2023-02-09T12:59:19.142Z,196.88
2023-02-09T13:00:19.124Z,196.88
2023-02-09T13:01:19.239Z,185.62
2023-02-09T13:02:19.101Z,185.62
2023-02-09T13:03:19.097Z,174.38
2023-02-09T13:04:24.113Z,174.38
2023-02-09T13:05:19.083Z,168.75
2023-02-09T13:06:19.058Z,168.75
2023-02-09T13:07:19.046Z,163.12
2023-02-09T13:08:19.038Z,163.12
2023-02-09T13:09:19.021Z,163.12
2023-02-09T13:10:19.017Z,157.50
2023-02-09T13:11:19.018Z,163.12
2023-02-09T13:12:18.985Z,163.12
2023-02-09T13:13:18.996Z,168.75
2023-02-09T13:14:18.964Z,163.12
2023-02-09T13:15:23.983Z,157.50
2023-02-09T13:16:18.991Z,157.50
2023-02-09T13:17:18.940Z,151.88
2023-02-09T13:18:18.918Z,146.25
2023-02-09T13:19:18.915Z,140.62
2023-02-09T13:20:18.925Z,140.62
2023-02-09T13:21:18.899Z,140.62
2023-02-09T13:22:18.878Z,140.62
2023-02-09T13:23:18.869Z,140.62
2023-02-09T13:24:18.852Z,140.62
2023-02-09T13:25:18.850Z,140.62
2023-02-09T13:26:23.850Z,140.62
2023-02-09T13:27:18.821Z,135.00
2023-02-09T13:28:18.870Z,135.00
2023-02-09T13:29:21.287Z,135.00
2023-02-09T13:30:18.818Z,135.00
2023-02-09T13:31:18.837Z,135.00
2023-02-09T13:32:18.764Z,135.00
2023-02-09T13:33:18.751Z,129.38
2023-02-09T13:34:18.739Z,129.38
2023-02-09T13:35:18.740Z,129.38
2023-02-09T13:36:24.782Z,129.38
2023-02-09T13:37:24.747Z,129.38
2023-02-09T13:38:18.692Z,129.38
2023-02-09T13:39:18.683Z,123.75
2023-02-09T13:40:18.685Z,123.75
2023-02-09T13:41:18.666Z,123.75
2023-02-09T13:42:18.651Z,123.75
2023-02-09T13:43:18.640Z,123.75
2023-02-09T13:44:18.627Z,123.75
2023-02-09T13:45:18.675Z,123.75
2023-02-09T13:46:18.646Z,123.75
2023-02-09T13:47:18.596Z,123.75
2023-02-09T13:48:23.602Z,123.75
2023-02-09T13:49:18.568Z,118.12
2023-02-09T13:50:18.574Z,118.12
2023-02-09T13:51:18.553Z,118.12
2023-02-09T13:52:18.554Z,118.12
2023-02-09T13:53:18.525Z,118.12
2023-02-09T13:54:18.608Z,118.12
2023-02-09T13:55:18.511Z,118.12
2023-02-09T13:56:18.489Z,118.12
2023-02-09T13:57:18.485Z,118.12
2023-02-09T13:58:18.563Z,118.12
2023-02-09T13:59:23.478Z,118.12
2023-02-09T14:00:18.475Z,118.12
2023-02-09T14:01:18.551Z,112.50
2023-02-09T14:02:18.431Z,112.50
2023-02-09T14:03:18.419Z,112.50
2023-02-09T14:04:18.401Z,112.50
2023-02-09T14:05:18.400Z,112.50
2023-02-09T14:06:18.393Z,112.50
2023-02-09T14:07:18.367Z,106.88
2023-02-09T14:08:18.355Z,106.88
2023-02-09T14:09:18.347Z,106.88
2023-02-09T14:10:23.357Z,106.88
2023-02-09T14:11:18.337Z,106.88
2023-02-09T14:12:18.309Z,106.88
2023-02-09T14:13:18.300Z,106.88
2023-02-09T14:14:18.285Z,106.88
2023-02-09T14:15:18.273Z,106.88
2023-02-09T14:16:18.303Z,106.88
2023-02-09T14:17:25.153Z,106.88
2023-02-09T14:18:19.239Z,101.25
2023-02-09T14:19:18.226Z,106.88
2023-02-09T14:20:18.216Z,101.25
2023-02-09T14:21:23.277Z,101.25
2023-02-09T14:22:18.220Z,101.25
2023-02-09T14:23:18.181Z,101.25
2023-02-09T14:24:18.234Z,101.25
2023-02-09T14:25:18.168Z,101.25
2023-02-09T14:26:18.160Z,101.25
2023-02-09T14:27:18.137Z,101.25
2023-02-09T14:28:18.130Z,101.25
2023-02-09T14:29:18.267Z,95.62
2023-02-09T14:30:18.129Z,95.62
2023-02-09T14:31:18.279Z,95.62
2023-02-09T14:32:32.689Z,95.62
2023-02-09T14:33:19.088Z,95.62
2023-02-09T14:34:18.060Z,95.62
2023-02-09T14:35:18.049Z,95.62
2023-02-09T14:36:18.048Z,90.00
2023-02-09T14:37:18.020Z,90.00
2023-02-09T14:38:18.010Z,90.00
2023-02-09T14:39:18.004Z,90.00
2023-02-09T14:40:17.993Z,90.00
2023-02-09T14:41:17.994Z,90.00
2023-02-09T14:42:17.970Z,90.00
2023-02-09T14:43:22.975Z,90.00
2023-02-09T14:44:17.941Z,90.00
2023-02-09T14:45:17.929Z,90.00
2023-02-09T14:46:18.008Z,90.00
2023-02-09T14:47:17.918Z,90.00
2023-02-09T14:48:17.920Z,90.00
2023-02-09T14:49:17.905Z,90.00
2023-02-09T14:50:17.886Z,90.00
2023-02-09T14:51:17.879Z,84.38
2023-02-09T14:52:17.865Z,84.38
2023-02-09T14:53:17.844Z,84.38
2023-02-09T14:54:22.856Z,84.38
2023-02-09T14:55:17.820Z,78.75
2023-02-09T14:56:17.812Z,78.75
2023-02-09T14:57:17.810Z,78.75
2023-02-09T14:58:17.788Z,78.75
2023-02-09T14:59:17.781Z,78.75
2023-02-09T15:00:17.829Z,78.75
2023-02-09T15:01:17.804Z,73.12
2023-02-09T15:02:17.775Z,73.12
2023-02-09T15:03:17.737Z,73.12
2023-02-09T15:04:17.745Z,73.12
2023-02-09T15:05:22.757Z,73.12
2023-02-09T15:06:17.703Z,73.12
2023-02-09T15:07:17.701Z,67.50
2023-02-09T15:08:17.675Z,67.50
2023-02-09T15:09:17.662Z,67.50
2023-02-09T15:10:17.656Z,67.50
2023-02-09T15:11:17.641Z,67.50
2023-02-09T15:12:17.645Z,67.50
2023-02-09T15:13:17.618Z,67.50
2023-02-09T15:14:17.609Z,67.50
2023-02-09T15:15:17.599Z,67.50
2023-02-09T15:16:22.638Z,67.50
2023-02-09T15:17:17.613Z,67.50
2023-02-09T15:18:17.566Z,67.50
2023-02-09T15:19:17.551Z,67.50
2023-02-09T15:20:17.578Z,67.50
2023-02-09T15:21:17.531Z,67.50
2023-02-09T15:22:17.527Z,67.50
2023-02-09T15:23:17.505Z,67.50
2023-02-09T15:24:17.492Z,61.88
2023-02-09T15:25:17.483Z,61.88
2023-02-09T15:26:17.523Z,61.88
2023-02-09T15:27:22.503Z,61.88
2023-02-09T15:28:17.514Z,61.88
2023-02-09T15:29:17.434Z,61.88
2023-02-09T15:30:17.430Z,61.88
2023-02-09T15:31:17.563Z,56.25
2023-02-09T15:32:17.403Z,56.25
2023-02-09T15:33:17.408Z,56.25
2023-02-09T15:34:17.378Z,50.62
2023-02-09T15:35:17.366Z,50.62
2023-02-09T15:36:17.379Z,50.62
2023-02-09T15:37:17.342Z,50.62
2023-02-09T15:38:22.370Z,50.62
2023-02-09T15:39:17.327Z,50.62
2023-02-09T15:40:17.317Z,50.62
2023-02-09T15:41:17.306Z,50.62
2023-02-09T15:42:17.287Z,45.00
2023-02-09T15:43:17.289Z,45.00
2023-02-09T15:44:17.266Z,45.00
2023-02-09T15:45:17.261Z,45.00
2023-02-09T15:46:17.314Z,45.00
2023-02-09T15:47:17.229Z,45.00
2023-02-09T15:48:17.239Z,39.38
2023-02-09T15:49:22.228Z,39.38
2023-02-09T15:50:17.195Z,39.38
2023-02-09T15:51:17.184Z,39.38
2023-02-09T15:52:17.199Z,39.38
2023-02-09T15:53:17.177Z,39.38
2023-02-09T15:54:17.181Z,39.38
2023-02-09T15:55:17.145Z,39.38
2023-02-09T15:56:17.131Z,39.38
2023-02-09T15:57:17.115Z,39.38
2023-02-09T15:58:17.126Z,39.38
2023-02-09T15:59:17.095Z,39.38
2023-02-09T16:00:22.106Z,33.75
2023-02-09T16:01:17.132Z,33.75
2023-02-09T16:02:17.066Z,33.75
2023-02-09T16:03:17.170Z,33.75
2023-02-09T16:04:17.043Z,28.12
2023-02-09T16:05:17.030Z,28.12
2023-02-09T16:06:17.021Z,28.12
2023-02-09T16:07:17.007Z,28.12
2023-02-09T16:08:17.127Z,28.12
2023-02-09T16:09:16.981Z,22.50
2023-02-09T16:10:16.983Z,22.50
2023-02-09T16:11:22.011Z,22.50
2023-02-09T16:12:17.060Z,22.50
2023-02-09T16:13:16.949Z,16.88
2023-02-09T16:14:16.961Z,16.88
2023-02-09T16:15:16.913Z,16.88
2023-02-09T16:16:17.753Z,16.88
2023-02-09T16:17:16.889Z,11.25
2023-02-09T16:18:16.898Z,11.25
2023-02-09T16:19:16.917Z,11.25
2023-02-09T16:20:16.866Z,11.25
2023-02-09T16:21:16.874Z,11.25
2023-02-09T16:22:21.857Z,11.25
2023-02-09T16:23:20.854Z,5.62
2023-02-09T16:24:16.838Z,5.62
2023-02-09T16:25:16.802Z,5.62
2023-02-09T16:26:16.814Z,5.62
2023-02-09T16:27:16.781Z,5.62
2023-02-09T16:28:16.843Z,5.62
2023-02-09T16:29:16.761Z,5.62
2023-02-09T16:30:16.752Z,5.62
2023-02-09T16:31:16.807Z,5.62
2023-02-09T16:32:16.737Z,0.00
2023-02-09T16:33:21.748Z,0.00
2023-02-09T16:34:16.720Z,0.00
2023-02-09T16:35:17.455Z,0.00
2023-02-09T16:36:16.681Z,0.00
2023-02-09T16:37:16.673Z,0.00
2023-02-09T16:38:16.662Z,0.00
2023-02-09T16:39:16.684Z,0.00
2023-02-09T16:40:16.677Z,0.00
2023-02-09T16:41:16.624Z,0.00
2023-02-09T16:42:16.633Z,0.00
2023-02-09T16:43:16.612Z,0.00
2023-02-09T16:44:21.637Z,0.00
2023-02-09T16:45:16.583Z,0.00
2023-02-09T16:46:16.611Z,0.00
2023-02-09T16:47:16.559Z,0.00
2023-02-09T16:48:16.549Z,0.00
2023-02-09T16:49:16.546Z,0.00
2023-02-09T16:50:16.534Z,0.00
2023-02-09T16:51:16.515Z,0.00
2023-02-09T16:52:16.510Z,0.00
2023-02-09T16:53:16.503Z,0.00
2023-02-09T16:54:16.490Z,0.00
2023-02-09T16:55:21.547Z,0.00
2023-02-09T16:56:16.457Z,0.00
2023-02-09T16:57:16.450Z,0.00
2023-02-09T16:58:16.435Z,0.00
2023-02-09T16:59:16.436Z,0.00
2023-02-09T17:00:16.412Z,0.00
2023-02-09T17:01:16.444Z,0.00
2023-02-09T17:02:16.449Z,0.00
2023-02-09T17:03:16.377Z,0.00
2023-02-09T17:04:16.384Z,0.00
2023-02-09T17:05:16.369Z,0.00
2023-02-09T17:06:21.368Z,0.00
2023-02-09T17:07:16.329Z,0.00
2023-02-09T17:08:16.326Z,0.00
2023-02-09T17:09:16.326Z,0.00
2023-02-09T17:10:16.343Z,0.00
2023-02-09T17:11:16.304Z,0.00
2023-02-09T17:12:16.275Z,0.00
2023-02-09T17:13:16.267Z,0.00
2023-02-09T17:14:16.266Z,0.00
2023-02-09T17:15:29.011Z,0.00
2023-02-09T17:16:17.263Z,0.00
2023-02-09T17:17:21.244Z,0.00
2023-02-09T17:18:16.205Z,0.00
2023-02-09T17:19:16.202Z,0.00
2023-02-09T17:20:16.189Z,0.00
2023-02-09T17:21:16.173Z,0.00
2023-02-09T17:22:16.157Z,0.00
2023-02-09T17:23:16.159Z,0.00
2023-02-09T17:24:16.168Z,0.00
2023-02-09T17:25:16.155Z,0.00
2023-02-09T17:26:16.115Z,0.00
2023-02-09T17:27:16.234Z,0.00
2023-02-09T17:28:21.192Z,0.00
2023-02-09T17:29:16.094Z,0.00
2023-02-09T17:30:16.085Z,0.00
2023-02-09T17:31:16.094Z,0.00
2023-02-09T17:32:16.078Z,0.00
2023-02-09T17:33:16.043Z,0.00
2023-02-09T17:34:16.045Z,0.00
2023-02-09T17:35:16.016Z,0.00
2023-02-09T17:36:26.394Z,0.00
2023-02-09T17:37:17.012Z,0.00
2023-02-09T17:38:15.980Z,0.00
2023-02-09T17:39:20.996Z,0.00
2023-02-09T17:40:15.957Z,0.00
2023-02-09T17:41:15.947Z,0.00
2023-02-09T17:42:15.932Z,0.00
2023-02-09T17:43:15.939Z,0.00
2023-02-09T17:44:26.536Z,0.00
2023-02-09T17:45:16.922Z,0.00
2023-02-09T17:46:16.069Z,0.00
2023-02-09T17:47:15.873Z,0.00